Terminal Aerodrome Forecast
Issued by NWS Paducah, KY

Home | Current Version | Previous Version | Text Only | Print | Product List | Glossary Off
Versions: 1 2 3 4 5 6 7 8 9 10 11 12 13

000
FTUS43 KPAH 311100
TAFEVV
TAF
KEVV 311132Z 3112/0112 00000KT P6SM SKC
     FM311500 21004KT P6SM SCT050
     FM010800 00000KT 4SM BR SCT060=

USA.gov is the U.S. government's official web portal to all federal, state and local government web resources and services.